createdAt,value
2018-03-04T00:00:37.034Z,58.69
2018-03-04T00:01:37.042Z,58.37
2018-03-04T00:02:37.049Z,59.03
2018-03-04T00:03:37.049Z,60.46
2018-03-04T00:04:37.055Z,60.46
2018-03-04T00:05:37.063Z,60.27
2018-03-04T00:06:37.061Z,59.98
2018-03-04T00:07:37.073Z,60.93
2018-03-04T00:08:37.071Z,61.49
2018-03-04T00:09:37.081Z,61.30
2018-03-04T00:10:37.082Z,59.60
2018-03-04T00:11:37.086Z,58.84
2018-03-04T00:12:37.093Z,58.87
2018-03-04T00:13:37.099Z,59.51
2018-03-04T00:14:37.103Z,58.94
2018-03-04T00:15:37.109Z,60.27
2018-03-04T00:16:37.112Z,60.55
2018-03-04T00:17:37.111Z,61.21
2018-03-04T00:18:37.119Z,61.11
2018-03-04T00:19:37.126Z,61.30
2018-03-04T00:20:37.125Z,60.93
2018-03-04T00:21:37.129Z,61.11
2018-03-04T00:22:37.132Z,61.87
2018-03-04T00:23:37.145Z,61.77
2018-03-04T00:24:37.142Z,61.49
2018-03-04T00:25:37.147Z,61.21
2018-03-04T00:26:37.157Z,60.83
2018-03-04T00:27:37.163Z,60.55
2018-03-04T00:28:37.159Z,60.36
2018-03-04T00:29:37.170Z,60.36
2018-03-04T00:30:37.175Z,59.79
2018-03-04T00:31:37.173Z,58.56
2018-03-04T00:32:37.179Z,57.65
2018-03-04T00:33:37.187Z,58.22
2018-03-04T00:34:37.190Z,57.84
2018-03-04T00:35:37.190Z,56.89
2018-03-04T00:36:37.200Z,56.32
2018-03-04T00:37:37.198Z,56.51
2018-03-04T00:38:37.208Z,56.23
2018-03-04T00:39:37.213Z,56.42
2018-03-04T00:40:37.216Z,56.23
2018-03-04T00:41:37.222Z,56.04
2018-03-04T00:42:37.228Z,56.04
2018-03-04T00:43:37.230Z,55.19
2018-03-04T00:44:37.237Z,54.91
2018-03-04T00:45:37.238Z,53.58
2018-03-04T00:46:37.242Z,53.77
2018-03-04T00:47:37.248Z,53.11
2018-03-04T00:48:37.245Z,52.55
2018-03-04T00:49:37.249Z,52.17
2018-03-04T00:50:37.258Z,52.17
2018-03-04T00:51:37.265Z,51.60
2018-03-04T00:52:37.261Z,51.69
2018-03-04T00:53:37.266Z,52.45
2018-03-04T00:54:37.274Z,53.30
2018-03-04T00:55:37.276Z,53.20
2018-03-04T00:56:37.285Z,52.64
2018-03-04T00:57:37.287Z,53.39
2018-03-04T00:58:37.293Z,53.30
2018-03-04T00:59:37.296Z,53.87
2018-03-04T01:00:37.295Z,54.15
2018-03-04T01:01:37.298Z,53.39
2018-03-04T01:02:37.304Z,52.26
2018-03-04T01:03:37.312Z,52.26
2018-03-04T01:04:37.317Z,53.02
2018-03-04T01:05:37.316Z,53.49
2018-03-04T01:06:37.318Z,53.87
2018-03-04T01:07:37.329Z,53.77
2018-03-04T01:08:37.332Z,53.87
2018-03-04T01:09:37.338Z,53.58
2018-03-04T01:10:37.334Z,54.06
2018-03-04T01:11:37.342Z,53.94
2018-03-04T01:12:37.344Z,53.37
2018-03-04T01:13:37.352Z,52.83
2018-03-04T01:14:37.354Z,51.98
2018-03-04T01:15:37.363Z,51.32
2018-03-04T01:16:37.360Z,51.69
2018-03-04T01:17:37.365Z,51.03
2018-03-04T01:18:37.373Z,51.50
2018-03-04T01:19:37.378Z,51.79
2018-03-04T01:20:37.378Z,51.50
2018-03-04T01:21:37.382Z,50.75
2018-03-04T01:22:37.390Z,50.65
2018-03-04T01:23:37.400Z,50.75
2018-03-04T01:24:37.400Z,51.79
2018-03-04T01:25:37.398Z,52.17
2018-03-04T01:26:37.407Z,51.69
2018-03-04T01:27:37.410Z,52.07
2018-03-04T01:28:37.416Z,51.60
2018-03-04T01:29:37.418Z,51.86
2018-03-04T01:30:37.423Z,51.98
2018-03-04T01:31:37.428Z,52.04
2018-03-04T01:32:37.426Z,51.67
2018-03-04T01:33:37.436Z,51.01
2018-03-04T01:34:37.433Z,50.18
2018-03-04T01:35:37.439Z,49.71
2018-03-04T01:36:37.448Z,50.09
2018-03-04T01:37:37.447Z,50.37
2018-03-04T01:38:37.450Z,50.37
2018-03-04T01:39:37.455Z,51.13
2018-03-04T01:40:37.457Z,51.50
2018-03-04T01:41:37.465Z,52.17
2018-03-04T01:42:37.471Z,51.76
2018-03-04T01:43:37.476Z,50.82
2018-03-04T01:44:37.511Z,50.82
2018-03-04T01:45:37.484Z,50.72
2018-03-04T01:46:37.483Z,50.25
2018-03-04T01:47:37.493Z,50.16
2018-03-04T01:48:37.495Z,50.06
2018-03-04T01:49:37.500Z,50.16
2018-03-04T01:50:37.505Z,50.53
2018-03-04T01:51:37.504Z,51.67
2018-03-04T01:52:37.508Z,51.86
2018-03-04T01:53:37.510Z,52.99
2018-03-04T01:54:37.516Z,54.03
2018-03-04T01:55:37.532Z,55.07
2018-03-04T01:56:37.530Z,55.44
2018-03-04T01:57:37.534Z,55.07
2018-03-04T01:58:37.532Z,54.88
2018-03-04T01:59:37.537Z,55.92
2018-03-04T02:00:37.544Z,56.20
2018-03-04T02:01:37.544Z,56.58
2018-03-04T02:02:37.557Z,56.77
2018-03-04T02:03:37.553Z,57.34
2018-03-04T02:04:37.562Z,58.09
2018-03-04T02:05:37.567Z,57.90
2018-03-04T02:06:37.564Z,58.09
2018-03-04T02:07:37.569Z,58.37
2018-03-04T02:08:37.572Z,58.65
2018-03-04T02:09:37.578Z,59.03
2018-03-04T02:10:37.587Z,58.84
2018-03-04T02:11:37.592Z,59.13
2018-03-04T02:12:37.594Z,58.75
2018-03-04T02:13:37.593Z,59.32
2018-03-04T02:14:37.599Z,59.10
2018-03-04T02:15:37.601Z,59.38
2018-03-04T02:16:37.605Z,59.95
2018-03-04T02:17:37.613Z,60.61
2018-03-04T02:18:37.623Z,61.27
2018-03-04T02:19:37.617Z,61.08
2018-03-04T02:20:37.620Z,60.89
2018-03-04T02:21:37.629Z,60.89
2018-03-04T02:22:37.628Z,61.08
2018-03-04T02:23:37.636Z,61.27
2018-03-04T02:24:37.635Z,61.36
2018-03-04T02:25:37.641Z,61.08
2018-03-04T02:26:37.644Z,61.27
2018-03-04T02:27:37.649Z,61.65
2018-03-04T02:28:37.649Z,61.55
2018-03-04T02:29:37.659Z,62.21
2018-03-04T02:30:37.665Z,62.88
2018-03-04T02:31:37.669Z,63.45
2018-03-04T02:32:37.666Z,63.45
2018-03-04T02:33:37.669Z,63.35
2018-03-04T02:34:37.674Z,63.45
2018-03-04T02:35:37.683Z,62.50
2018-03-04T02:36:37.685Z,62.88
2018-03-04T02:37:37.691Z,61.84
2018-03-04T02:38:37.687Z,62.12
2018-03-04T02:39:37.691Z,62.31
2018-03-04T02:40:37.697Z,62.31
2018-03-04T02:41:37.699Z,61.84
2018-03-04T02:42:37.707Z,62.31
2018-03-04T02:43:37.712Z,62.12
2018-03-04T02:44:37.710Z,61.84
2018-03-04T02:45:37.713Z,61.74
2018-03-04T02:46:37.717Z,61.55
2018-03-04T02:47:37.728Z,61.36
2018-03-04T02:48:37.728Z,61.27
2018-03-04T02:49:37.734Z,60.89
2018-03-04T02:50:37.733Z,60.14
2018-03-04T02:51:37.736Z,59.86
2018-03-04T02:52:37.743Z,59.76
2018-03-04T02:53:37.747Z,60.05
2018-03-04T02:54:37.753Z,60.14
2018-03-04T02:55:37.752Z,60.61
2018-03-04T02:56:37.754Z,60.33
2018-03-04T02:57:37.760Z,60.24
2018-03-04T02:58:37.773Z,60.14
2018-03-04T02:59:37.774Z,60.14
2018-03-04T03:00:37.771Z,59.57
2018-03-04T03:01:37.779Z,59.48
2018-03-04T03:02:37.786Z,59.95
2018-03-04T03:03:37.788Z,60.05
2018-03-04T03:04:37.786Z,59.86
2018-03-04T03:05:37.789Z,60.33
2018-03-04T03:06:37.795Z,59.57
2018-03-04T03:07:37.806Z,59.48
2018-03-04T03:08:37.808Z,59.67
2018-03-04T03:09:37.812Z,59.57
2018-03-04T03:10:37.811Z,59.57
2018-03-04T03:11:37.815Z,59.00
2018-03-04T03:12:37.819Z,59.00
2018-03-04T03:13:37.823Z,59.10
2018-03-04T03:14:37.825Z,58.82
2018-03-04T03:15:37.836Z,58.82
2018-03-04T03:16:37.841Z,59.29
2018-03-04T03:17:37.845Z,58.63
2018-03-04T03:18:37.851Z,58.72
2018-03-04T03:19:37.854Z,58.72
2018-03-04T03:20:37.851Z,58.63
2018-03-04T03:21:37.859Z,58.53
2018-03-04T03:22:37.861Z,58.63
2018-03-04T03:23:37.871Z,59.10
2018-03-04T03:24:37.868Z,59.19
2018-03-04T03:25:37.873Z,59.10
2018-03-04T03:26:37.882Z,59.29
2018-03-04T03:27:37.883Z,59.19
2018-03-04T03:28:37.892Z,59.19
2018-03-04T03:29:37.895Z,58.63
2018-03-04T03:30:37.899Z,58.82
2018-03-04T03:31:37.904Z,59.19
2018-03-04T03:32:37.907Z,59.76
2018-03-04T03:33:37.905Z,59.10
2018-03-04T03:34:37.912Z,59.67
2018-03-04T03:35:37.913Z,59.10
2018-03-04T03:36:37.921Z,59.19
2018-03-04T03:37:37.926Z,59.29
2018-03-04T03:38:37.925Z,59.10
2018-03-04T03:39:37.930Z,59.19
2018-03-04T03:40:37.934Z,59.10
2018-03-04T03:41:37.936Z,59.00
2018-03-04T03:42:37.942Z,59.10
2018-03-04T03:43:37.950Z,59.38
2018-03-04T03:44:37.953Z,59.38
2018-03-04T03:45:37.954Z,59.38
2018-03-04T03:46:37.962Z,59.86
2018-03-04T03:47:37.966Z,60.52
2018-03-04T03:48:37.965Z,60.14
2018-03-04T03:49:37.973Z,60.33
2018-03-04T03:50:37.971Z,60.24
2018-03-04T03:51:37.977Z,60.71
2018-03-04T03:52:37.980Z,60.61
2018-03-04T03:53:37.984Z,60.80
2018-03-04T03:54:37.988Z,60.89
2018-03-04T03:55:37.993Z,60.71
2018-03-04T03:56:38.001Z,60.89
2018-03-04T03:57:38.005Z,60.99
2018-03-04T03:58:38.009Z,60.99
2018-03-04T03:59:38.007Z,61.08
2018-03-04T04:00:38.010Z,60.80
2018-03-04T04:01:38.022Z,60.89
2018-03-04T04:02:38.023Z,60.42
2018-03-04T04:03:38.023Z,60.14
2018-03-04T04:04:38.031Z,59.95
2018-03-04T04:05:38.036Z,60.42
2018-03-04T04:06:38.033Z,59.95
2018-03-04T04:07:38.038Z,60.24
2018-03-04T04:08:38.047Z,59.29
2018-03-04T04:09:38.048Z,60.42
2018-03-04T04:10:38.050Z,60.52
2018-03-04T04:11:38.060Z,61.18
2018-03-04T04:12:38.061Z,60.89
2018-03-04T04:13:38.061Z,60.52
2018-03-04T04:14:38.065Z,60.24
2018-03-04T04:15:38.079Z,59.76
2018-03-04T04:16:38.071Z,59.19
2018-03-04T04:17:38.076Z,59.10
2018-03-04T04:18:38.080Z,58.91
2018-03-04T04:19:38.091Z,58.72
2018-03-04T04:20:38.087Z,59.00
2018-03-04T04:21:38.091Z,59.10
2018-03-04T04:22:38.101Z,60.71
2018-03-04T04:23:38.105Z,62.40
2018-03-04T04:24:38.110Z,63.54
2018-03-04T04:25:38.107Z,63.82
2018-03-04T04:26:38.113Z,63.92
2018-03-04T04:27:38.122Z,62.59
2018-03-04T04:28:38.127Z,62.69
2018-03-04T04:29:38.122Z,62.50
2018-03-04T04:30:38.128Z,62.69
2018-03-04T04:31:38.130Z,62.97
2018-03-04T04:32:38.132Z,63.26
2018-03-04T04:33:38.136Z,63.54
2018-03-04T04:34:38.146Z,63.73
2018-03-04T04:35:38.149Z,64.01
2018-03-04T04:36:38.155Z,64.29
2018-03-04T04:37:38.156Z,64.39
2018-03-04T04:38:38.160Z,64.67
2018-03-04T04:39:38.157Z,64.67
2018-03-04T04:40:38.168Z,64.86
2018-03-04T04:41:38.164Z,65.05
2018-03-04T04:42:38.170Z,64.67
2018-03-04T04:43:38.173Z,65.05
2018-03-04T04:44:38.180Z,65.14
2018-03-04T04:45:38.185Z,65.23
2018-03-04T04:46:38.183Z,65.23
2018-03-04T04:47:38.192Z,65.33
2018-03-04T04:48:38.189Z,65.33
2018-03-04T04:49:38.194Z,65.23
2018-03-04T04:50:38.197Z,65.14
2018-03-04T04:51:38.200Z,64.58
2018-03-04T04:52:38.212Z,64.48
2018-03-04T04:53:38.214Z,64.20
2018-03-04T04:54:38.211Z,64.01
2018-03-04T04:55:38.215Z,63.82
2018-03-04T04:56:38.226Z,63.73
2018-03-04T04:57:38.221Z,63.82
2018-03-04T04:58:38.230Z,64.29
2018-03-04T04:59:38.230Z,64.39
2018-03-04T05:00:38.233Z,64.48
2018-03-04T05:01:38.236Z,64.76
2018-03-04T05:02:38.244Z,64.67
2018-03-04T05:03:38.246Z,64.76
2018-03-04T05:04:38.252Z,64.67
2018-03-04T05:05:38.260Z,64.20
2018-03-04T05:06:38.254Z,64.01
2018-03-04T05:07:38.269Z,63.63
2018-03-04T05:08:38.266Z,63.82
2018-03-04T05:09:38.271Z,63.63
2018-03-04T05:10:38.274Z,63.45
2018-03-04T05:11:38.278Z,63.45
2018-03-04T05:12:38.275Z,63.26
2018-03-04T05:13:38.286Z,62.97
2018-03-04T05:14:38.289Z,62.59
2018-03-04T05:15:38.291Z,62.88
2018-03-04T05:16:38.292Z,62.21
2018-03-04T05:17:38.295Z,61.65
2018-03-04T05:18:38.300Z,62.40
2018-03-04T05:19:38.303Z,62.12
2018-03-04T05:20:38.305Z,62.02
2018-03-04T05:21:38.317Z,61.84
2018-03-04T05:22:38.314Z,61.65
2018-03-04T05:23:38.324Z,62.40
2018-03-04T05:24:38.321Z,61.93
2018-03-04T05:25:38.326Z,61.84
2018-03-04T05:26:38.335Z,61.36
2018-03-04T05:27:38.340Z,61.46
2018-03-04T05:28:38.336Z,61.08
2018-03-04T05:29:38.341Z,61.46
2018-03-04T05:30:39.345Z,61.18
2018-03-04T05:31:38.353Z,60.71
2018-03-04T05:32:38.355Z,60.80
2018-03-04T05:33:38.364Z,60.42
2018-03-04T05:34:38.363Z,60.42
2018-03-04T05:35:38.368Z,60.71
2018-03-04T05:36:38.371Z,60.52
2018-03-04T05:37:38.380Z,59.95
2018-03-04T05:38:38.376Z,60.24
2018-03-04T05:39:38.384Z,60.24
2018-03-04T05:40:38.386Z,59.86
2018-03-04T05:41:38.391Z,59.48
2018-03-04T05:42:38.395Z,59.19
2018-03-04T05:43:38.399Z,58.82
2018-03-04T05:44:38.401Z,58.06
2018-03-04T05:45:38.406Z,57.87
2018-03-04T05:46:38.411Z,57.50
2018-03-04T05:47:38.415Z,56.84
2018-03-04T05:48:38.417Z,57.03
2018-03-04T05:49:38.417Z,57.31
2018-03-04T05:50:38.425Z,57.78
2018-03-04T05:51:38.425Z,57.59
2018-03-04T05:52:38.433Z,57.40
2018-03-04T05:53:38.436Z,57.40
2018-03-04T05:54:38.434Z,57.78
2018-03-04T05:55:38.450Z,57.59
2018-03-04T05:56:38.446Z,56.93
2018-03-04T05:57:38.452Z,56.46
2018-03-04T05:58:38.455Z,55.89
2018-03-04T05:59:38.461Z,55.89
2018-03-04T06:00:38.463Z,55.51
2018-03-04T06:01:38.461Z,55.89
2018-03-04T06:02:38.471Z,55.61
2018-03-04T06:03:38.470Z,55.89
2018-03-04T06:04:38.473Z,55.89
2018-03-04T06:05:38.477Z,55.98
2018-03-04T06:06:38.486Z,56.17
2018-03-04T06:07:38.491Z,56.17
2018-03-04T06:08:38.488Z,56.74
2018-03-04T06:09:38.498Z,57.03
2018-03-04T06:10:38.503Z,57.12
2018-03-04T06:11:38.501Z,57.68
2018-03-04T06:12:38.546Z,57.97
2018-03-04T06:13:38.508Z,57.87
2018-03-04T06:14:38.512Z,57.68
2018-03-04T06:15:38.523Z,57.50
2018-03-04T06:16:38.526Z,57.31
2018-03-04T06:17:38.529Z,57.31
2018-03-04T06:18:38.533Z,57.31
2018-03-04T06:19:38.538Z,57.40
2018-03-04T06:20:38.540Z,57.31
2018-03-04T06:21:38.539Z,57.78
2018-03-04T06:22:38.546Z,58.15
2018-03-04T06:23:38.551Z,58.72
2018-03-04T06:24:38.556Z,59.00
2018-03-04T06:25:38.554Z,59.57
2018-03-04T06:26:38.559Z,59.95
2018-03-04T06:27:38.560Z,60.80
2018-03-04T06:28:38.569Z,60.89
2018-03-04T06:29:38.573Z,60.99
2018-03-04T06:30:38.573Z,61.08
2018-03-04T06:31:38.575Z,60.80
2018-03-04T06:32:38.588Z,60.52
2018-03-04T06:33:38.597Z,60.33
2018-03-04T06:34:38.591Z,59.38
2018-03-04T06:35:38.597Z,59.67
2018-03-04T06:36:38.594Z,59.48
2018-03-04T06:37:38.596Z,59.76
2018-03-04T06:38:38.600Z,59.67
2018-03-04T06:39:38.610Z,59.00
2018-03-04T06:40:38.608Z,59.57
2018-03-04T06:41:38.610Z,60.05
2018-03-04T06:42:38.621Z,60.14
2018-03-04T06:43:38.624Z,60.61
2018-03-04T06:44:38.626Z,59.95
2018-03-04T06:45:38.629Z,60.05
2018-03-04T06:46:38.629Z,60.05
2018-03-04T06:47:38.633Z,60.24
2018-03-04T06:48:38.692Z,59.76
2018-03-04T06:49:38.644Z,59.19
2018-03-04T06:50:38.645Z,59.67
2018-03-04T06:51:38.647Z,59.10
2018-03-04T06:52:38.652Z,59.10
2018-03-04T06:53:38.653Z,58.82
2018-03-04T06:54:38.662Z,58.53
2018-03-04T06:55:38.666Z,58.72
2018-03-04T06:56:38.664Z,58.53
2018-03-04T06:57:38.675Z,58.53
2018-03-04T06:58:38.683Z,58.53
2018-03-04T06:59:38.682Z,58.06
2018-03-04T07:00:38.683Z,57.97
2018-03-04T07:01:38.690Z,58.06
2018-03-04T07:02:38.686Z,57.87
2018-03-04T07:03:38.696Z,57.87
2018-03-04T07:04:38.692Z,57.78
2018-03-04T07:05:38.697Z,57.12
2018-03-04T07:06:38.700Z,56.55
2018-03-04T07:07:38.713Z,56.93
2018-03-04T07:08:38.712Z,57.40
2018-03-04T07:09:38.713Z,57.31
2018-03-04T07:10:38.721Z,57.53
2018-03-04T07:11:38.729Z,58.00
2018-03-04T07:12:38.728Z,57.90
2018-03-04T07:13:38.733Z,58.18
2018-03-04T07:14:38.735Z,58.75
2018-03-04T07:15:38.734Z,58.65
2018-03-04T07:16:38.737Z,57.71
2018-03-04T07:17:38.747Z,56.77
2018-03-04T07:18:38.754Z,56.48
2018-03-04T07:19:38.756Z,56.20
2018-03-04T07:20:38.753Z,55.92
2018-03-04T07:21:38.764Z,56.30
2018-03-04T07:22:38.768Z,56.30
2018-03-04T07:23:38.773Z,56.39
2018-03-04T07:24:38.771Z,56.01
2018-03-04T07:25:38.777Z,56.11
2018-03-04T07:26:38.781Z,56.77
2018-03-04T07:27:38.789Z,56.11
2018-03-04T07:28:38.793Z,56.67
2018-03-04T07:29:38.842Z,56.96
2018-03-04T07:30:38.804Z,57.43
2018-03-04T07:31:38.802Z,57.81
2018-03-04T07:32:38.811Z,58.18
2018-03-04T07:33:38.815Z,58.18
2018-03-04T07:34:38.821Z,57.62
2018-03-04T07:35:38.820Z,57.43
2018-03-04T07:36:38.823Z,56.84
2018-03-04T07:37:38.827Z,56.74
2018-03-04T07:38:38.831Z,56.36
2018-03-04T07:39:38.841Z,56.74
2018-03-04T07:40:38.855Z,56.55
2018-03-04T07:41:38.848Z,56.46
2018-03-04T07:42:38.860Z,56.55
2018-03-04T07:43:38.852Z,56.74
2018-03-04T07:44:38.865Z,56.27
2018-03-04T07:45:38.861Z,56.48
2018-03-04T07:46:38.865Z,56.58
2018-03-04T07:47:38.869Z,56.58
2018-03-04T07:48:38.875Z,56.58
2018-03-04T07:49:38.882Z,56.30
2018-03-04T07:50:38.888Z,56.11
2018-03-04T07:51:38.893Z,55.92
2018-03-04T07:52:38.890Z,56.20
2018-03-04T07:53:38.901Z,55.44
2018-03-04T07:54:38.898Z,55.54
2018-03-04T07:55:38.910Z,54.81
2018-03-04T07:56:38.919Z,54.72
2018-03-04T07:57:38.913Z,54.81
2018-03-04T07:58:38.925Z,54.06
2018-03-04T07:59:38.922Z,53.96
2018-03-04T08:00:38.924Z,53.87
2018-03-04T08:01:38.937Z,53.39
2018-03-04T08:02:38.934Z,53.39
2018-03-04T08:03:38.939Z,53.30
2018-03-04T08:04:38.950Z,53.39
2018-03-04T08:05:38.948Z,53.02
2018-03-04T08:06:38.955Z,51.98
2018-03-04T08:07:38.963Z,51.81
2018-03-04T08:08:38.962Z,51.06
2018-03-04T08:09:38.967Z,50.96
2018-03-04T08:10:38.983Z,50.49
2018-03-04T08:11:38.982Z,50.21
2018-03-04T08:12:38.988Z,49.07
2018-03-04T08:13:38.993Z,47.85
2018-03-04T08:14:38.992Z,48.03
2018-03-04T08:15:38.999Z,48.13
2018-03-04T08:16:39.008Z,48.32
2018-03-04T08:17:39.008Z,48.69
2018-03-04T08:18:39.013Z,48.60
2018-03-04T08:19:39.027Z,48.63
2018-03-04T08:20:39.039Z,49.29
2018-03-04T08:21:39.029Z,48.79
2018-03-04T08:22:39.041Z,48.60
2018-03-04T08:23:39.048Z,47.56
2018-03-04T08:24:39.046Z,47.37
2018-03-04T08:25:39.053Z,47.96
2018-03-04T08:26:39.065Z,48.15
2018-03-04T08:27:39.063Z,48.44
2018-03-04T08:28:39.112Z,48.25
2018-03-04T08:29:39.075Z,47.96
2018-03-04T08:30:39.088Z,47.58
2018-03-04T08:31:39.093Z,47.77
2018-03-04T08:32:39.093Z,46.07
2018-03-04T08:33:39.105Z,45.60
2018-03-04T08:34:39.106Z,46.26
2018-03-04T08:35:39.112Z,45.60
2018-03-04T08:36:39.129Z,47.02
2018-03-04T08:37:39.122Z,46.92
2018-03-04T08:38:39.129Z,46.73
2018-03-04T08:39:39.141Z,46.26
2018-03-04T08:40:39.149Z,46.73
2018-03-04T08:41:39.156Z,46.85
2018-03-04T08:42:39.160Z,46.47
2018-03-04T08:43:39.160Z,47.13
2018-03-04T08:44:39.168Z,47.51
2018-03-04T08:45:39.173Z,47.13
2018-03-04T08:46:39.189Z,45.88
2018-03-04T08:47:39.192Z,45.69
2018-03-04T08:48:39.196Z,45.50
2018-03-04T08:49:39.204Z,45.98
2018-03-04T08:50:39.206Z,45.50
2018-03-04T08:51:39.212Z,45.88
2018-03-04T08:52:39.223Z,47.30
2018-03-04T08:53:39.226Z,46.92
2018-03-04T08:54:39.234Z,46.45
2018-03-04T08:55:39.240Z,46.36
2018-03-04T08:56:39.245Z,46.36
2018-03-04T08:57:39.252Z,46.85
2018-03-04T08:58:39.265Z,47.32
2018-03-04T08:59:39.271Z,47.23
2018-03-04T09:00:39.277Z,46.47
2018-03-04T09:01:39.289Z,46.75
2018-03-04T09:02:39.287Z,46.36
2018-03-04T09:03:39.298Z,47.30
2018-03-04T09:04:39.307Z,47.89
2018-03-04T09:05:39.309Z,48.36
2018-03-04T09:06:39.315Z,47.13
2018-03-04T09:07:39.327Z,45.88
2018-03-04T09:08:39.397Z,45.03
2018-03-04T09:09:39.335Z,45.62
2018-03-04T09:10:39.348Z,45.81
2018-03-04T09:11:39.352Z,45.98
2018-03-04T09:12:39.362Z,46.47
2018-03-04T09:13:39.369Z,46.85
2018-03-04T09:14:39.372Z,46.19
2018-03-04T09:15:39.379Z,46.75
2018-03-04T09:16:39.385Z,47.42
2018-03-04T09:17:39.392Z,46.78
2018-03-04T09:18:39.400Z,45.36
2018-03-04T09:19:39.461Z,45.74
2018-03-04T09:20:39.421Z,45.72
2018-03-04T09:21:39.428Z,44.39
2018-03-04T09:22:39.434Z,44.20
2018-03-04T09:23:39.441Z,44.58
2018-03-04T09:24:39.444Z,45.15
2018-03-04T09:25:39.511Z,45.72
2018-03-04T09:26:39.462Z,46.37
2018-03-04T09:27:39.472Z,46.47
2018-03-04T09:28:39.482Z,46.85
2018-03-04T09:29:39.486Z,45.90
2018-03-04T09:30:39.496Z,45.72
2018-03-04T09:31:39.497Z,45.72
2018-03-04T09:32:39.508Z,45.90
2018-03-04T09:33:39.520Z,47.25
2018-03-04T09:34:39.528Z,45.83
2018-03-04T09:35:39.532Z,45.55
2018-03-04T09:36:39.536Z,45.10
2018-03-04T09:37:39.545Z,42.73
2018-03-04T09:38:39.561Z,41.88
2018-03-04T09:39:39.565Z,42.07
2018-03-04T09:40:39.567Z,41.89
2018-03-04T09:41:39.580Z,42.47
2018-03-04T09:42:39.589Z,41.99
2018-03-04T09:43:39.597Z,41.12
2018-03-04T09:44:39.603Z,40.45
2018-03-04T09:45:39.609Z,40.63
2018-03-04T09:46:39.624Z,42.63
2018-03-04T09:47:39.634Z,42.14
2018-03-04T09:48:39.638Z,45.26
2018-03-04T09:49:39.649Z,44.89
2018-03-04T09:50:39.660Z,44.32
2018-03-04T09:51:39.668Z,44.03
2018-03-04T09:52:39.670Z,43.94
2018-03-04T09:53:39.681Z,43.68
2018-03-04T09:54:39.688Z,44.06
2018-03-04T09:55:39.700Z,42.82
2018-03-04T09:56:39.710Z,43.11
2018-03-04T09:57:39.714Z,42.27
2018-03-04T09:58:39.727Z,42.94
2018-03-04T09:59:39.733Z,41.61
2018-03-04T10:00:39.740Z,40.85
2018-03-04T10:01:39.752Z,41.24
2018-03-04T10:02:39.758Z,41.21
2018-03-04T10:03:39.767Z,41.42
2018-03-04T10:04:39.781Z,41.80
2018-03-04T10:05:39.791Z,42.11
2018-03-04T10:06:39.800Z,40.69
2018-03-04T10:07:39.808Z,38.96
2018-03-04T10:08:39.813Z,39.54
2018-03-04T10:09:39.828Z,40.09
2018-03-04T10:10:39.838Z,40.38
2018-03-04T10:11:39.844Z,41.12
2018-03-04T10:12:39.861Z,40.55
2018-03-04T10:13:39.865Z,42.08
2018-03-04T10:14:39.877Z,43.04
2018-03-04T10:15:39.888Z,44.17
2018-03-04T10:16:39.891Z,42.47
2018-03-04T10:17:39.918Z,41.42
2018-03-04T10:18:39.911Z,40.28
2018-03-04T10:19:39.921Z,42.30
2018-03-04T10:20:39.933Z,41.54
2018-03-04T10:21:39.945Z,39.26
2018-03-04T10:22:39.951Z,38.14
2018-03-04T10:23:39.963Z,36.82
2018-03-04T10:24:39.971Z,37.38
2018-03-04T10:25:39.988Z,37.74
2018-03-04T10:26:39.991Z,36.80
2018-03-04T10:27:40.002Z,36.04
2018-03-04T10:28:40.018Z,36.89
2018-03-04T10:29:40.023Z,38.89
2018-03-04T10:30:40.033Z,40.42
2018-03-04T10:31:40.051Z,39.37
2018-03-04T10:32:40.061Z,37.97
2018-03-04T10:33:40.069Z,36.19
2018-03-04T10:34:40.083Z,35.06
2018-03-04T10:35:40.087Z,33.56
2018-03-04T10:36:40.104Z,34.99
2018-03-04T10:37:40.116Z,33.37
2018-03-04T10:38:40.121Z,33.18
2018-03-04T10:39:40.155Z,32.59
2018-03-04T10:40:40.148Z,33.73
2018-03-04T10:41:40.161Z,33.05
2018-03-04T10:42:40.166Z,32.28
2018-03-04T10:43:40.180Z,35.14
2018-03-04T10:44:40.196Z,34.65
2018-03-04T10:45:40.209Z,34.90
2018-03-04T10:46:40.219Z,35.57
2018-03-04T10:47:40.234Z,38.31
2018-03-04T10:48:40.236Z,39.54
2018-03-04T10:49:40.260Z,40.50
2018-03-04T10:50:40.263Z,37.86
2018-03-04T10:51:41.272Z,35.60
2018-03-04T10:52:40.290Z,33.91
2018-03-04T10:53:40.302Z,32.40
2018-03-04T10:54:40.311Z,32.32
2018-03-04T10:55:40.326Z,31.29
2018-03-04T10:56:40.333Z,27.50
2018-03-04T10:57:40.346Z,26.47
2018-03-04T10:58:40.405Z,25.61
2018-03-04T10:59:40.374Z,27.50
2018-03-04T11:00:40.393Z,27.75
2018-03-04T11:01:40.398Z,28.03
2018-03-04T11:02:40.415Z,28.57
2018-03-04T11:03:40.427Z,30.94
2018-03-04T11:04:40.441Z,32.09
2018-03-04T11:05:40.446Z,32.77
2018-03-04T11:06:40.459Z,34.86
2018-03-04T11:07:40.483Z,34.29
2018-03-04T11:08:40.486Z,34.57
2018-03-04T11:09:40.507Z,35.71
2018-03-04T11:10:40.518Z,33.91
2018-03-04T11:11:40.529Z,33.05
2018-03-04T11:12:40.539Z,32.12
2018-03-04T11:13:40.560Z,30.62
2018-03-04T11:14:40.572Z,30.80
2018-03-04T11:15:40.587Z,28.25
2018-03-04T11:16:40.593Z,26.46
2018-03-04T11:17:40.607Z,25.33
2018-03-04T11:18:40.621Z,24.66
2018-03-04T11:19:40.633Z,23.05
2018-03-04T11:20:40.649Z,23.05
2018-03-04T11:21:40.666Z,23.83
2018-03-04T11:22:40.678Z,24.22
2018-03-04T11:23:40.694Z,25.07
2018-03-04T11:24:40.702Z,26.18
2018-03-04T11:25:40.725Z,25.68
2018-03-04T11:26:40.731Z,27.57
2018-03-04T11:27:40.798Z,27.46
2018-03-04T11:28:40.770Z,29.92
2018-03-04T11:29:40.773Z,32.29
2018-03-04T11:30:40.792Z,32.84
2018-03-04T11:31:40.806Z,32.86
2018-03-04T11:32:40.824Z,33.69
2018-03-04T11:33:40.835Z,32.45
2018-03-04T11:34:40.852Z,35.60
2018-03-04T11:35:40.864Z,35.60
2018-03-04T11:36:40.874Z,37.01
2018-03-04T11:37:40.893Z,37.86
2018-03-04T11:38:40.900Z,36.26
2018-03-04T11:39:40.920Z,36.94
2018-03-04T11:40:40.935Z,35.42
2018-03-04T11:41:40.943Z,35.05
2018-03-04T11:42:40.958Z,32.88
2018-03-04T11:43:40.976Z,33.09
2018-03-04T11:44:40.988Z,31.26
2018-03-04T11:45:40.998Z,30.76
2018-03-04T11:46:41.012Z,32.94
2018-03-04T11:47:41.027Z,34.84
2018-03-04T11:48:41.044Z,36.07
2018-03-04T11:49:41.092Z,35.14
2018-03-04T11:50:41.067Z,35.90
2018-03-04T11:51:41.081Z,36.76
2018-03-04T11:52:41.093Z,35.44
2018-03-04T11:53:41.113Z,32.23
2018-03-04T11:54:41.127Z,29.64
2018-03-04T11:55:41.141Z,32.40
2018-03-04T11:56:41.148Z,35.25
2018-03-04T11:57:41.168Z,30.90
2018-03-04T11:58:41.180Z,30.15
2018-03-04T11:59:41.192Z,30.17
2018-03-04T12:00:41.205Z,27.51
2018-03-04T12:01:41.220Z,30.47
2018-03-04T12:02:41.233Z,30.37
2018-03-04T12:03:41.253Z,27.62
2018-03-04T12:04:41.260Z,27.62
2018-03-04T12:05:41.275Z,28.86
2018-03-04T12:06:41.292Z,26.68
2018-03-04T12:07:41.360Z,29.15
2018-03-04T12:08:41.324Z,30.87
2018-03-04T12:09:41.412Z,27.62
2018-03-04T12:10:41.352Z,26.09
2018-03-04T12:11:41.367Z,25.40
2018-03-04T12:12:41.378Z,28.05
2018-03-04T12:13:41.397Z,30.57
2018-03-04T12:14:41.412Z,33.72
2018-03-04T12:15:41.428Z,33.81
2018-03-04T12:16:41.441Z,31.36
2018-03-04T12:17:41.450Z,32.20
2018-03-04T12:18:41.467Z,31.84
2018-03-04T12:19:41.482Z,32.29
2018-03-04T12:20:41.497Z,33.64
2018-03-04T12:21:41.517Z,33.53
2018-03-04T12:22:41.526Z,35.54
2018-03-04T12:23:41.545Z,36.02
2018-03-04T12:24:41.552Z,35.81
2018-03-04T12:25:41.573Z,33.61
2018-03-04T12:26:41.587Z,32.39
2018-03-04T12:27:41.601Z,33.92
2018-03-04T12:28:41.609Z,31.18
2018-03-04T12:29:41.625Z,28.92
2018-03-04T12:30:41.645Z,26.65
2018-03-04T12:31:41.656Z,25.04
2018-03-04T12:32:41.676Z,27.23
2018-03-04T12:33:41.690Z,27.80
2018-03-04T12:34:41.758Z,27.69
2018-03-04T12:35:41.741Z,27.60
2018-03-04T12:36:41.750Z,30.65
2018-03-04T12:37:41.741Z,30.36
2018-03-04T12:38:41.757Z,30.74
2018-03-04T12:39:41.771Z,32.34
2018-03-04T12:40:41.793Z,31.18
2018-03-04T12:41:41.802Z,32.70
2018-03-04T12:42:41.821Z,31.07
2018-03-04T12:43:41.837Z,30.31
2018-03-04T12:44:41.855Z,32.03
2018-03-04T12:45:41.866Z,36.13
2018-03-04T12:46:41.875Z,33.56
2018-03-04T12:47:41.895Z,32.04
2018-03-04T12:48:41.912Z,31.56
2018-03-04T12:49:41.926Z,30.82
2018-03-04T12:50:41.934Z,32.17
2018-03-04T12:51:41.954Z,30.57
2018-03-04T12:52:41.963Z,29.71